Ames, OK

2:34 AM CDT on September 01, 2014 (GMT -0500)
Vance Air Force Base | Change Station
CLOSE
Current Station
Airport
Location: Enid Vance AFB,
Elevation: 1306 ft
Nearby Weather Stations

Elev 1306 ft 36.34 °N, 97.92 °W | Updated 36 minutes ago

Clear
Clear
82 °F
Feels Like 86 °F
N
22
Wind Variable Wind from South
Gusts 30 mph

Today
High -- | Low -- °F
--% Chance of Precip.
Yesterday
High -- | Low -- °F
Precip. -- in
7:04 AM 8:00 PM
Waxing Crescent, 38% visible
Pressure 29.68 in
Visibility 10.0 miles
Clouds Clear
Heat Index 86 °F
Dew Point 70 °F
Humidity 66%
Rainfall 0.00 in
Snow Depth Not available.
UV 0 out of 12
Pollen 9.90 out of 12
Air Quality Not available.
Flu Activity Not available.
METAR KEND 010658Z AUTO 18019G26KT 10SM CLR 28/21 A2973 RMK AO2 PK WND 18030/37 SLP051 T02800210 $

More Conditions Fewer Conditions

Pressure 29.68 in
Visibility 10.0 miles
Clouds Clear
Heat Index 86 °F
Dew Point 70 °F
Humidity 66%
Rainfall 0.00 in
Snow Depth Not available.
UV 0 out of 12
Pollen 9.90 out of 12
Air Quality Not available.
Flu Activity Not available.
METAR KEND 010658Z AUTO 18019G26KT 10SM CLR 28/21 A2973 RMK AO2 PK WND 18030/37 SLP051 T02800210 $

More Conditions Fewer Conditions

10-Day Weather Forecast

Almanac

Astronomy

Sep. 01, 2014 Rise Set
Actual Time 7:04 AM CDT 8:00 PM CDT
Civil Twilight 6:38 AM CDT 8:26 PM CDT
Nautical Twilight 6:06 AM CDT 8:57 PM CDT
Astronomical Twilight 5:34 AM CDT 9:29 PM CDT
Moon 1:39 PM CDT No Moon Set
Length of Visible Light 13h 48m
Length of Day
12h 56m
Tomorrow will be 2m 13s shorter.
Waxing Crescent, 38% of the Moon is Illuminated
Today
Waxing Crescent
Sep 2
First Quarter
Sep 8
Full
Sep 15
Last Quarter
Sep 24
New

Today's Extremes

State Highs State Lows

Community

WunderPhotos

Upload Photos

1,749,154 photos uploaded!

Nearby

Snow Depth

Station Depth Elevation
No new snow has been reported.

Earthquake Activity

City Distance Mag. Time & Date
Jones, Oklahoma 66 miles 3.1 1:49 PM CDT
2014-08-31
Enid, Oklahoma 28 miles 3.4 11:57 AM CDT
2014-08-31
Enid, Oklahoma 27 miles 3.7 2:20 AM CDT
2014-08-31
Guthrie, Oklahoma 49 miles 3.2 10:39 AM CDT
2014-08-29
Minimum magnitude displayed is 2.5.

Coastal Water Temperatures

Place Temperature
No Stations Reporting

Nearby Weather Stations